Flight Track Log - Related Links

Times and Time Zones

All times are in EDT time to prevent confusion due to time zone crossing. See the SKW5631 flight status page for this flight to view local times or setup timezone preferences in your user account.

Time Position Orientation Groundspeed Altitude Reporting Facility
EDT Latitude Longitude Course Direction KTS MPH feet Rate Location/Type
Mon 09:32:54 PM 37.6667 -122.3667 133° Southeast 168 193 1,700  Level Northern Cal TRACON
Mon 09:33:48 PM 37.7000 -122.4000 322° Northwest 227 261 4,000 2,382 Climbing Northern Cal TRACON
Mon 09:35:00 PM 37.3860 -122.2706 130° Southeast  Level FlightAware Approximate
Mon 09:36:00 PM 37.2987 -122.1640 122° Southeast  Level FlightAware Approximate
Mon 09:36:13 PM 37.5561 -122.4458 194° South 278 320 9,600  Level Oakland Center
Mon 09:37:00 PM 37.2210 -122.0471 135° Southeast  Level FlightAware Approximate
Mon 09:37:14 PM 37.4964 -122.3733 136° Southeast 300 345 11,700  Level Oakland Center
Mon 09:38:00 PM 37.1541 -121.9610 133° Southeast  Level FlightAware Approximate
Mon 09:38:15 PM 37.4278 -122.2992 139° Southeast 323 372 13,200  Level Oakland Center
Mon 09:39:16 PM 37.3547 -122.2183 139° Southeast 346 398 15,100 1,869 Climbing Oakland Center
Mon 09:40:17 PM 37.2794 -122.1364 139° Southeast 356 410 17,000 1,902 Climbing Oakland Center
Mon 09:41:19 PM 37.1878 -122.0372 139° Southeast 364 419 19,000 1,659 Climbing Oakland Center
Mon 09:42:20 PM 37.1081 -121.9511 139° Southeast 376 433 20,400 1,377 Climbing Oakland Center
Mon 09:43:21 PM 37.0267 -121.8642 140° Southeast 385 443 21,800 1,377 Climbing Oakland Center
Mon 09:44:22 PM 36.9417 -121.7778 141° Southeast 391 450 23,200 1,230 Climbing Oakland Center
Mon 09:45:23 PM 36.8581 -121.6869 139° Southeast 400 460 24,300 1,082 Climbing Oakland Center
Mon 09:46:24 PM 36.7639 -121.5869 140° Southeast 408 470 25,400 1,082 Climbing Oakland Center
Mon 09:47:25 PM 36.6767 -121.4931 139° Southeast 413 475 26,500 787 Climbing Oakland Center
Mon 09:48:26 PM 36.5869 -121.4000 140° Southeast 419 482 27,000 244 Climbing Oakland Center
Mon 09:49:28 PM 36.4936 -121.3031 140° Southeast 435 501 27,000  Level Oakland Center
Mon 09:50:29 PM 36.3969 -121.2000 139° Southeast 453 521 27,000  Level Oakland Center
Mon 09:51:30 PM 36.3006 -121.0981 140° Southeast 456 525 27,000  Level Oakland Center
Mon 09:52:31 PM 36.2017 -120.9978 141° Southeast 458 527 27,000  Level Oakland Center
Mon 09:53:32 PM 36.1050 -120.8964 140° Southeast 456 525 27,000  Level Oakland Center
Mon 09:54:33 PM 36.0097 -120.7961 140° Southeast 451 519 27,000  Level Oakland Center
Mon 09:55:34 PM 35.9167 -120.7008 140° Southeast 435 501 27,000  Level Oakland Center
Mon 09:56:35 PM 35.8081 -120.5889 140° Southeast 426 490 27,000  Level Oakland Center
Mon 09:57:37 PM 35.7186 -120.4975 140° Southeast 418 481 27,000  Level Oakland Center
Mon 09:58:38 PM 35.6292 -120.4075 141° Southeast 414 476 27,000  Level Oakland Center
Mon 09:59:39 PM 35.5397 -120.3164 140° Southeast 412 474 27,000 -344 Level Oakland Center
Mon 10:00:40 PM 35.4481 -120.2233 140° Southeast 421 484 26,300 -627 Descending Oakland Center
Mon 10:01:53 PM 35.3328 -120.1061 140° Southeast 438 504 25,600 -578 Descending Los Angeles Center
Mon 10:02:55 PM 35.2364 -120.0097 141° Southeast 442 509 25,000 -634 Descending Los Angeles Center
Mon 10:03:56 PM 35.1417 -119.9147 141° Southeast 442 509 24,300 -1,073 Descending Los Angeles Center
Mon 10:04:58 PM 35.0625 -119.8231 137° Southeast 407 468 22,800 -1,500 Descending Los Angeles Center
Mon 10:06:00 PM 34.9936 -119.7306 132° Southeast 379 436 21,200 -1,463 Descending Los Angeles Center
Mon 10:07:01 PM 34.9269 -119.6397 132° Southeast 365 420 19,800 -1,366 Descending Los Angeles Center
Mon 10:08:03 PM 34.8586 -119.5489 133° Southeast 363 418 18,400 -1,512 Descending Los Angeles Center
Mon 10:09:04 PM 34.7817 -119.4464 132° Southeast 348 400 16,700 -1,512 Descending Los Angeles Center
Mon 10:10:06 PM 34.7200 -119.3633 132° Southeast 337 388 15,300 -1,366 Descending Los Angeles Center
Mon 10:11:07 PM 34.6558 -119.2783 133° Southeast 338 389 13,900 -1,366 Descending Los Angeles Center
Mon 10:12:09 PM 34.5944 -119.1989 133° Southeast 331 381 12,500 -1,355 Descending Los Angeles Center
Mon 10:13:11 PM 34.5381 -119.1236 132° Southeast 311 358 11,100 -683 Descending Los Angeles Center
Mon 10:14:12 PM 34.4817 -119.0453 131° Southeast 306 352 11,100 -488 Level Los Angeles Center
Mon 10:15:14 PM 34.4233 -118.9686 133° Southeast 308 354 10,100 -1,366 Descending Los Angeles Center
Mon 10:16:15 PM 34.3694 -118.8928 131° Southeast 297 342 8,300 -1,756 Descending Los Angeles Center
Mon 10:17:17 PM 34.3158 -118.8008 125° Southeast 277 319 6,500 -1,122 Descending Los Angeles Center
Mon 10:18:18 PM 34.2739 -118.7347 128° Southeast 251 289 6,000 -634 Descending Los Angeles Center
Mon 10:19:20 PM 34.2364 -118.6711 125° Southeast 243 280 5,200 -743 Descending Los Angeles Center
Mon 10:20:03 PM 34.2167 -118.6167 114° Southeast 223 257 4,700 -699 Descending Southern California TRACON
Mon 10:21:03 PM 34.2000 -118.5500 107° East 194 223 4,000 -700 Descending Southern California TRACON

Login

Don't have an account? Register now (free) for customized features, flight alerts, and more!